createdAt,value
2023-04-20T00:00:57.311Z,21.10
2023-04-20T00:02:03.502Z,21.09
2023-04-20T00:03:07.926Z,21.09
2023-04-20T00:04:10.895Z,21.09
2023-04-20T00:05:15.623Z,21.10
2023-04-20T00:06:20.361Z,21.10
2023-04-20T00:07:25.370Z,21.09
2023-04-20T00:08:28.059Z,21.10
2023-04-20T00:09:33.335Z,21.09
2023-04-20T00:10:36.125Z,21.10
2023-04-20T00:11:39.955Z,21.09
2023-04-20T00:12:43.393Z,21.09
2023-04-20T00:13:46.115Z,21.08
2023-04-20T00:14:48.918Z,21.08
2023-04-20T00:15:52.254Z,21.09
2023-04-20T00:16:55.704Z,21.09
2023-04-20T00:17:58.580Z,21.09
2023-04-20T00:19:02.610Z,21.08
2023-04-20T00:20:08.623Z,21.09
2023-04-20T00:21:11.407Z,21.09
2023-04-20T00:22:14.676Z,21.09
2023-04-20T00:23:17.458Z,21.09
2023-04-20T00:24:24.121Z,21.10
2023-04-20T00:25:26.808Z,21.10
2023-04-20T00:26:30.908Z,21.10
2023-04-20T00:27:34.990Z,21.10
2023-04-20T00:28:37.836Z,21.10
2023-04-20T00:29:43.487Z,21.09
2023-04-20T00:30:47.128Z,21.10
2023-04-20T00:31:50.657Z,21.10
2023-04-20T00:32:54.542Z,21.10
2023-04-20T00:33:57.324Z,21.10
2023-04-20T00:35:01.019Z,21.11
2023-04-20T00:36:04.594Z,21.11
2023-04-20T00:37:07.111Z,21.10
2023-04-20T00:38:10.835Z,21.10
2023-04-20T00:39:15.789Z,21.10
2023-04-20T00:40:19.405Z,21.11
2023-04-20T00:41:23.091Z,21.10
2023-04-20T00:42:27.307Z,21.10
2023-04-20T00:43:30.161Z,21.10
2023-04-20T00:44:33.102Z,21.10
2023-04-20T00:45:37.734Z,21.11
2023-04-20T00:46:41.164Z,21.10
2023-04-20T00:47:44.281Z,21.09
2023-04-20T00:48:47.617Z,21.10
2023-04-20T00:49:52.143Z,21.10
2023-04-20T00:50:54.847Z,21.10
2023-04-20T00:51:59.767Z,21.10
2023-04-20T00:53:03.630Z,21.11
2023-04-20T00:54:06.775Z,21.11
2023-04-20T00:55:09.860Z,21.10
2023-04-20T00:56:14.840Z,21.10
2023-04-20T00:57:18.736Z,21.11
2023-04-20T00:58:22.023Z,21.10
2023-04-20T00:59:25.643Z,21.10
2023-04-20T01:00:29.508Z,21.10
2023-04-20T01:01:32.581Z,21.10
2023-04-20T01:02:35.971Z,21.11
2023-04-20T01:03:39.548Z,21.10
2023-04-20T01:04:42.608Z,21.10
2023-04-20T01:05:47.333Z,21.09
2023-04-20T01:06:50.044Z,21.10
2023-04-20T01:07:53.287Z,21.10
2023-04-20T01:08:56.581Z,21.10
2023-04-20T01:09:59.385Z,21.10
2023-04-20T01:11:02.059Z,21.10
2023-04-20T01:12:06.358Z,21.11
2023-04-20T01:13:09.166Z,21.10
2023-04-20T01:14:12.040Z,21.10
2023-04-20T01:15:15.196Z,21.11
2023-04-20T01:16:18.001Z,21.10
2023-04-20T01:17:21.699Z,21.12
2023-04-20T01:18:24.549Z,21.10
2023-04-20T01:19:27.549Z,21.11
2023-04-20T01:20:33.256Z,21.11
2023-04-20T01:21:36.538Z,21.10
2023-04-20T01:22:54.228Z,21.11
2023-04-20T01:23:57.005Z,21.10
2023-04-20T01:25:00.953Z,21.10
2023-04-20T01:26:08.512Z,21.11
2023-04-20T01:27:12.996Z,21.10
2023-04-20T01:28:15.834Z,21.11
2023-04-20T01:29:18.616Z,21.10
2023-04-20T01:30:22.025Z,21.10
2023-04-20T01:31:31.269Z,21.11
2023-04-20T01:32:34.117Z,21.11
2023-04-20T01:33:37.103Z,21.11
2023-04-20T01:34:41.933Z,21.11
2023-04-20T01:35:44.651Z,21.11
2023-04-20T01:36:47.660Z,21.12
2023-04-20T01:37:52.420Z,21.11
2023-04-20T01:38:55.461Z,21.11
2023-04-20T01:39:59.150Z,21.11
2023-04-20T01:41:03.898Z,21.11
2023-04-20T01:42:07.045Z,21.11
2023-04-20T01:43:09.737Z,21.11
2023-04-20T01:44:12.888Z,21.11
2023-04-20T01:45:15.842Z,21.11
2023-04-20T01:46:18.859Z,21.11
2023-04-20T01:47:22.950Z,21.11
2023-04-20T01:48:27.808Z,21.11
2023-04-20T01:49:30.982Z,21.10
2023-04-20T01:50:33.913Z,21.10
2023-04-20T01:51:36.837Z,21.11
2023-04-20T01:52:39.649Z,21.11
2023-04-20T01:53:43.296Z,21.12
2023-04-20T01:54:46.270Z,21.11
2023-04-20T01:57:01.811Z,21.22
2023-04-20T01:58:04.517Z,21.11
2023-04-20T01:59:07.294Z,21.12
2023-04-20T02:00:11.626Z,21.11
2023-04-20T02:01:16.317Z,21.12
2023-04-20T02:02:20.101Z,21.12
2023-04-20T02:03:23.897Z,21.12
2023-04-20T02:04:27.086Z,21.11
2023-04-20T02:05:30.810Z,21.11
2023-04-20T02:06:33.870Z,21.12
2023-04-20T02:07:38.055Z,21.11
2023-04-20T02:08:42.647Z,21.12
2023-04-20T02:09:45.442Z,21.11
2023-04-20T02:10:55.070Z,21.11
2023-04-20T02:11:58.719Z,21.10
2023-04-20T02:13:02.756Z,21.10
2023-04-20T02:14:07.850Z,21.10
2023-04-20T02:15:10.914Z,21.10
2023-04-20T02:16:14.013Z,21.09
2023-04-20T02:17:17.585Z,21.09
2023-04-20T02:18:21.011Z,21.09
2023-04-20T02:19:23.830Z,21.08
2023-04-20T02:20:26.948Z,21.09
2023-04-20T02:21:30.145Z,21.08
2023-04-20T02:22:35.102Z,21.09
2023-04-20T02:23:39.956Z,21.09
2023-04-20T02:24:43.202Z,21.09
2023-04-20T02:25:45.874Z,21.09
2023-04-20T02:26:49.008Z,21.10
2023-04-20T02:27:51.802Z,21.09
2023-04-20T02:28:54.617Z,21.10
2023-04-20T02:29:58.808Z,21.09
2023-04-20T02:31:01.594Z,21.10
2023-04-20T02:32:06.623Z,21.10
2023-04-20T02:33:09.453Z,21.10
2023-04-20T02:34:13.135Z,21.11
2023-04-20T02:35:16.533Z,21.10
2023-04-20T02:36:19.562Z,21.10
2023-04-20T02:37:22.664Z,21.11
2023-04-20T02:38:26.605Z,21.11
2023-04-20T02:39:30.841Z,21.11
2023-04-20T02:40:34.250Z,21.10
2023-04-20T02:41:37.929Z,21.11
2023-04-20T02:42:40.715Z,21.11
2023-04-20T02:43:44.832Z,21.11
2023-04-20T02:44:48.663Z,21.12
2023-04-20T02:45:53.049Z,21.13
2023-04-20T02:46:57.444Z,21.13
2023-04-20T02:48:00.697Z,21.12
2023-04-20T02:49:05.244Z,21.13
2023-04-20T02:50:11.929Z,21.13
2023-04-20T02:51:16.506Z,21.12
2023-04-20T02:52:22.456Z,21.12
2023-04-20T02:53:25.330Z,21.13
2023-04-20T02:54:46.769Z,21.13
2023-04-20T02:55:50.227Z,21.14
2023-04-20T02:56:57.236Z,21.13
2023-04-20T02:57:59.624Z,21.14
2023-04-20T02:59:05.101Z,21.14
2023-04-20T03:00:13.115Z,21.14
2023-04-20T03:01:17.780Z,21.13
2023-04-20T03:02:23.064Z,21.13
2023-04-20T03:03:28.196Z,21.13
2023-04-20T03:04:39.197Z,21.12
2023-04-20T03:05:43.772Z,21.11
2023-04-20T03:06:46.875Z,21.12
2023-04-20T03:07:51.449Z,21.12
2023-04-20T03:08:54.593Z,21.13
2023-04-20T03:10:02.529Z,21.12
2023-04-20T03:11:19.075Z,21.12
2023-04-20T03:12:23.181Z,21.13
2023-04-20T03:13:31.647Z,21.13
2023-04-20T03:14:36.733Z,21.12
2023-04-20T03:15:40.133Z,21.12
2023-04-20T03:17:03.813Z,21.12
2023-04-20T03:18:07.906Z,21.13
2023-04-20T03:19:12.631Z,21.13
2023-04-20T03:20:16.498Z,21.13
2023-04-20T03:21:20.400Z,21.13
2023-04-20T03:22:23.127Z,21.12
2023-04-20T03:23:29.145Z,21.13
2023-04-20T03:24:32.368Z,21.13
2023-04-20T03:25:36.802Z,21.13
2023-04-20T03:26:43.107Z,21.12
2023-04-20T03:27:47.763Z,21.13
2023-04-20T03:28:51.193Z,21.12
2023-04-20T03:29:56.859Z,21.12
2023-04-20T03:31:01.109Z,21.12
2023-04-20T03:32:05.118Z,21.13
2023-04-20T03:33:10.904Z,21.13
2023-04-20T03:34:14.023Z,21.13
2023-04-20T03:35:19.709Z,21.12
2023-04-20T03:36:22.783Z,21.12
2023-04-20T03:37:26.005Z,21.12
2023-04-20T03:38:29.729Z,21.12
2023-04-20T03:39:32.489Z,21.12
2023-04-20T03:40:35.895Z,21.12
2023-04-20T03:41:40.095Z,21.13
2023-04-20T03:42:43.128Z,21.13
2023-04-20T03:43:46.167Z,21.13
2023-04-20T03:46:01.242Z,21.25
2023-04-20T03:47:05.809Z,21.14
2023-04-20T03:48:10.032Z,21.13
2023-04-20T03:49:13.848Z,21.14
2023-04-20T03:50:17.478Z,21.12
2023-04-20T03:51:21.220Z,21.14
2023-04-20T03:52:25.266Z,21.15
2023-04-20T03:53:28.760Z,21.14
2023-04-20T03:54:32.821Z,21.14
2023-04-20T03:55:35.873Z,21.15
2023-04-20T03:56:41.358Z,21.14
2023-04-20T03:57:45.761Z,21.14
2023-04-20T03:58:49.520Z,21.14
2023-04-20T03:59:54.194Z,21.14
2023-04-20T04:01:06.252Z,21.13
2023-04-20T04:02:12.460Z,21.13
2023-04-20T04:03:15.940Z,21.13
2023-04-20T04:04:19.141Z,21.14
2023-04-20T04:05:26.018Z,21.14
2023-04-20T04:06:30.984Z,21.13
2023-04-20T04:07:34.635Z,21.13
2023-04-20T04:08:38.435Z,21.12
2023-04-20T04:09:41.721Z,21.13
2023-04-20T04:10:44.771Z,21.13
2023-04-20T04:11:47.767Z,21.13
2023-04-20T04:12:50.769Z,21.12
2023-04-20T04:13:54.877Z,21.11
2023-04-20T04:14:58.213Z,21.12
2023-04-20T04:16:01.413Z,21.11
2023-04-20T04:17:04.346Z,21.13
2023-04-20T04:18:08.708Z,21.12
2023-04-20T04:19:11.669Z,21.13
2023-04-20T04:20:15.801Z,21.05
2023-04-20T04:21:20.577Z,21.12
2023-04-20T04:22:29.294Z,21.12
2023-04-20T04:23:50.316Z,21.11
2023-04-20T04:24:54.920Z,21.12
2023-04-20T04:25:58.097Z,21.12
2023-04-20T04:27:03.561Z,21.11
2023-04-20T04:28:07.322Z,21.11
2023-04-20T04:29:11.786Z,21.11
2023-04-20T04:30:15.948Z,21.11
2023-04-20T04:31:20.973Z,21.11
2023-04-20T04:32:24.743Z,21.10
2023-04-20T04:33:28.161Z,21.10
2023-04-20T04:34:33.295Z,21.10
2023-04-20T04:35:36.472Z,21.09
2023-04-20T04:36:39.689Z,21.09
2023-04-20T04:37:44.373Z,21.09
2023-04-20T04:38:48.579Z,21.09
2023-04-20T04:39:51.995Z,21.10
2023-04-20T04:40:56.712Z,21.10
2023-04-20T04:42:03.667Z,21.10
2023-04-20T04:43:09.669Z,21.10
2023-04-20T04:44:13.345Z,21.09
2023-04-20T04:45:17.852Z,21.09
2023-04-20T04:46:22.000Z,21.08
2023-04-20T04:47:27.849Z,21.09
2023-04-20T04:48:30.621Z,21.08
2023-04-20T04:50:49.571Z,21.19
2023-04-20T04:51:52.757Z,21.08
2023-04-20T04:52:56.367Z,21.09
2023-04-20T04:55:10.906Z,21.19
2023-04-20T04:56:14.630Z,21.08
2023-04-20T04:57:17.208Z,21.07
2023-04-20T04:58:20.238Z,21.08
2023-04-20T04:59:23.680Z,21.08
2023-04-20T05:00:27.724Z,21.08
2023-04-20T05:01:30.748Z,21.08
2023-04-20T05:03:46.696Z,21.20
2023-04-20T05:04:50.105Z,21.09
2023-04-20T05:05:53.146Z,21.09
2023-04-20T05:06:55.818Z,21.08
2023-04-20T05:07:59.761Z,21.09
2023-04-20T05:09:03.038Z,21.09
2023-04-20T05:10:08.069Z,21.09
2023-04-20T05:11:11.730Z,21.09
2023-04-20T05:12:14.725Z,21.10
2023-04-20T05:13:17.533Z,21.09
2023-04-20T05:14:22.492Z,21.08
2023-04-20T05:15:25.633Z,21.09
2023-04-20T05:16:28.756Z,21.09
2023-04-20T05:17:32.528Z,21.08
2023-04-20T05:18:36.235Z,21.10
2023-04-20T05:19:39.052Z,21.09
2023-04-20T05:20:42.333Z,21.09
2023-04-20T05:21:45.309Z,21.09
2023-04-20T05:22:47.894Z,21.08
2023-04-20T05:23:51.411Z,21.09
2023-04-20T05:24:54.515Z,21.09
2023-04-20T05:25:57.435Z,21.09
2023-04-20T05:27:01.045Z,21.09
2023-04-20T05:28:04.009Z,21.09
2023-04-20T05:29:06.685Z,21.10
2023-04-20T05:30:20.457Z,21.10
2023-04-20T05:31:17.754Z,21.10
2023-04-20T05:32:21.192Z,21.10
2023-04-20T05:33:24.628Z,21.10
2023-04-20T05:34:28.265Z,21.10
2023-04-20T05:35:32.200Z,21.11
2023-04-20T05:36:36.500Z,21.10
2023-04-20T05:37:39.393Z,21.10
2023-04-20T05:38:45.077Z,21.10
2023-04-20T05:39:48.544Z,21.11
2023-04-20T05:40:52.570Z,21.10
2023-04-20T05:41:57.343Z,21.11
2023-04-20T05:43:01.105Z,21.11
2023-04-20T05:44:04.146Z,21.10
2023-04-20T05:45:09.669Z,21.10
2023-04-20T05:46:13.295Z,21.10
2023-04-20T05:47:17.386Z,21.11
2023-04-20T05:48:20.857Z,21.10
2023-04-20T05:49:23.735Z,21.10
2023-04-20T05:50:27.245Z,21.10
2023-04-20T05:51:31.762Z,21.10
2023-04-20T05:52:34.722Z,21.10
2023-04-20T05:53:38.021Z,21.11
2023-04-20T05:54:41.945Z,21.11
2023-04-20T05:55:44.790Z,21.11
2023-04-20T05:56:48.064Z,21.10
2023-04-20T05:57:51.730Z,21.09
2023-04-20T05:58:55.895Z,21.09
2023-04-20T05:59:59.778Z,21.09
2023-04-20T06:01:04.627Z,21.10
2023-04-20T06:02:08.404Z,21.08
2023-04-20T06:03:12.972Z,21.10
2023-04-20T06:04:17.209Z,21.10
2023-04-20T06:05:21.000Z,21.09
2023-04-20T06:06:24.231Z,21.10
2023-04-20T06:07:27.249Z,21.10
2023-04-20T06:08:30.165Z,21.10
2023-04-20T06:09:33.380Z,21.10
2023-04-20T06:10:36.616Z,21.10
2023-04-20T06:11:40.143Z,21.09
2023-04-20T06:12:42.847Z,21.10
2023-04-20T06:13:45.678Z,21.09
2023-04-20T06:14:51.405Z,21.10
2023-04-20T06:15:54.616Z,21.09
2023-04-20T06:16:58.673Z,21.10
2023-04-20T06:18:01.828Z,21.08
2023-04-20T06:19:05.629Z,21.09
2023-04-20T06:20:11.029Z,21.09
2023-04-20T06:21:13.670Z,21.08
2023-04-20T06:22:16.433Z,21.09
2023-04-20T06:23:19.114Z,21.08
2023-04-20T06:24:22.249Z,21.08
2023-04-20T06:25:25.033Z,21.08
2023-04-20T06:26:29.869Z,21.10
2023-04-20T06:27:32.531Z,21.09
2023-04-20T06:28:35.850Z,21.09
2023-04-20T06:29:38.487Z,21.10
2023-04-20T06:30:42.202Z,21.09
2023-04-20T06:31:45.136Z,21.08
2023-04-20T06:32:48.069Z,21.09
2023-04-20T06:33:51.437Z,21.08
2023-04-20T06:34:54.907Z,21.08
2023-04-20T06:35:57.742Z,21.09
2023-04-20T06:37:00.640Z,21.09
2023-04-20T06:38:05.484Z,21.04
2023-04-20T06:39:08.675Z,21.04
2023-04-20T06:40:13.726Z,21.10
2023-04-20T06:41:17.992Z,21.09
2023-04-20T06:42:22.039Z,21.09
2023-04-20T06:43:25.718Z,21.09
2023-04-20T06:44:29.296Z,21.10
2023-04-20T06:45:33.996Z,21.08
2023-04-20T06:46:37.356Z,21.09
2023-04-20T06:47:41.490Z,21.09
2023-04-20T06:48:44.203Z,21.08
2023-04-20T06:49:47.114Z,21.08
2023-04-20T06:50:50.519Z,21.09
2023-04-20T06:51:53.083Z,21.09
2023-04-20T06:52:55.676Z,21.08
2023-04-20T06:54:00.491Z,21.08
2023-04-20T06:55:04.326Z,21.07
2023-04-20T06:56:08.137Z,21.08
2023-04-20T06:57:11.475Z,21.08
2023-04-20T06:58:14.706Z,21.06
2023-04-20T06:59:19.102Z,21.07
2023-04-20T07:00:23.606Z,21.07
2023-04-20T07:01:26.968Z,21.06
2023-04-20T07:02:31.628Z,21.04
2023-04-20T07:03:35.022Z,21.06
2023-04-20T07:04:38.075Z,21.05
2023-04-20T07:05:41.809Z,21.05
2023-04-20T07:06:46.326Z,21.04
2023-04-20T07:07:49.785Z,21.02
2023-04-20T07:08:52.609Z,21.04
2023-04-20T07:11:08.684Z,21.13
2023-04-20T07:12:14.097Z,21.02
2023-04-20T07:13:16.727Z,21.03
2023-04-20T07:14:20.640Z,21.02
2023-04-20T07:15:23.488Z,21.01
2023-04-20T07:16:26.126Z,21.01
2023-04-20T07:17:30.935Z,21.01
2023-04-20T07:18:35.420Z,21.01
2023-04-20T07:19:38.690Z,21.00
2023-04-20T07:20:41.818Z,21.00
2023-04-20T07:21:46.386Z,21.00
2023-04-20T07:22:49.078Z,20.98
2023-04-20T07:23:52.283Z,21.00
2023-04-20T07:24:56.163Z,20.99
2023-04-20T07:26:01.083Z,21.00
2023-04-20T07:27:04.017Z,21.00
2023-04-20T07:28:07.773Z,20.99
2023-04-20T07:29:11.011Z,20.97
2023-04-20T07:30:14.758Z,20.92
2023-04-20T07:31:17.778Z,20.91
2023-04-20T07:32:20.670Z,20.90
2023-04-20T07:33:23.859Z,20.89
2023-04-20T07:34:26.576Z,20.87
2023-04-20T07:35:32.148Z,20.86
2023-04-20T07:36:36.361Z,20.85
2023-04-20T07:37:40.766Z,20.84
2023-04-20T07:38:57.325Z,20.84
2023-04-20T07:40:00.946Z,20.81
2023-04-20T07:42:23.801Z,20.89
2023-04-20T07:43:30.297Z,20.78
2023-04-20T07:44:35.078Z,20.76
2023-04-20T07:45:40.776Z,20.76
2023-04-20T07:46:45.477Z,20.73
2023-04-20T07:47:50.083Z,20.70
2023-04-20T07:48:53.370Z,20.69
2023-04-20T07:49:57.075Z,20.67
2023-04-20T07:51:00.066Z,20.66
2023-04-20T07:52:15.108Z,20.65
2023-04-20T07:53:08.725Z,20.63
2023-04-20T07:54:13.876Z,20.61
2023-04-20T07:55:16.870Z,20.56
2023-04-20T07:57:32.822Z,20.69
2023-04-20T07:58:37.600Z,20.52
2023-04-20T07:59:42.792Z,20.35
2023-04-20T08:01:42.607Z,20.03
2023-04-20T08:02:45.679Z,19.70
2023-04-20T08:03:49.199Z,19.48
2023-04-20T08:04:53.015Z,19.31
2023-04-20T08:05:56.443Z,19.16
2023-04-20T08:07:00.424Z,19.03
2023-04-20T08:08:05.891Z,18.87
2023-04-20T08:09:08.558Z,18.72
2023-04-20T08:10:13.233Z,18.56
2023-04-20T08:11:17.780Z,18.45
2023-04-20T08:12:20.578Z,18.33
2023-04-20T08:13:23.494Z,18.20
2023-04-20T08:14:26.956Z,18.08
2023-04-20T08:18:37.733Z,18.05
2023-04-20T08:19:42.335Z,18.13
2023-04-20T08:21:48.143Z,18.29
2023-04-20T08:22:52.701Z,18.37
2023-04-20T08:24:59.191Z,18.63
2023-04-20T08:26:04.240Z,18.63
2023-04-20T08:28:33.305Z,18.91
2023-04-20T08:29:29.066Z,18.88
2023-04-20T08:30:33.088Z,18.96
2023-04-20T08:31:37.787Z,19.02
2023-04-20T08:32:42.474Z,19.08
2023-04-20T08:33:45.157Z,19.15
2023-04-20T08:34:48.880Z,19.21
2023-04-20T08:35:52.341Z,19.26
2023-04-20T08:36:56.373Z,19.33
2023-04-20T08:37:59.882Z,19.37
2023-04-20T08:40:22.123Z,19.56
2023-04-20T08:41:25.734Z,19.52
2023-04-20T08:42:28.324Z,19.55
2023-04-20T08:43:31.746Z,19.59
2023-04-20T08:44:34.404Z,19.63
2023-04-20T08:45:37.425Z,19.66
2023-04-20T08:46:40.676Z,19.69
2023-04-20T08:47:45.131Z,19.73
2023-04-20T08:48:48.806Z,19.75
2023-04-20T08:49:54.124Z,19.78
2023-04-20T08:51:00.335Z,19.81
2023-04-20T08:52:03.020Z,19.82
2023-04-20T08:53:06.009Z,19.84
2023-04-20T08:54:08.785Z,19.85
2023-04-20T08:55:16.903Z,19.86
2023-04-20T08:56:20.127Z,19.87
2023-04-20T08:57:22.837Z,19.88
2023-04-20T08:58:27.602Z,19.88
2023-04-20T08:59:31.501Z,19.89
2023-04-20T09:00:35.863Z,19.89
2023-04-20T09:01:40.290Z,19.90
2023-04-20T09:02:51.594Z,19.90
2023-04-20T09:03:55.424Z,19.87
2023-04-20T09:05:05.378Z,19.84
2023-04-20T09:06:16.443Z,19.82
2023-04-20T09:07:21.408Z,19.78
2023-04-20T09:10:08.331Z,19.85
2023-04-20T09:12:42.408Z,19.82
2023-04-20T09:13:46.462Z,19.72
2023-04-20T09:14:49.075Z,19.74
2023-04-20T09:15:52.127Z,19.74
2023-04-20T09:17:04.663Z,19.75
2023-04-20T09:18:15.448Z,19.75
2023-04-20T09:19:25.426Z,19.77
2023-04-20T09:20:31.357Z,19.80
2023-04-20T09:21:34.629Z,19.80
2023-04-20T09:22:37.465Z,19.78
2023-04-20T09:23:40.178Z,19.78
2023-04-20T09:24:42.974Z,19.80
2023-04-20T09:25:49.290Z,19.78
2023-04-20T09:26:52.383Z,19.78
2023-04-20T09:27:56.588Z,19.80
2023-04-20T09:30:14.075Z,19.88
2023-04-20T09:31:21.823Z,19.78
2023-04-20T09:32:24.808Z,19.77
2023-04-20T09:33:28.102Z,19.77
2023-04-20T09:34:31.207Z,19.77
2023-04-20T09:35:35.630Z,19.77
2023-04-20T09:36:46.466Z,19.78
2023-04-20T09:37:49.226Z,19.80
2023-04-20T09:39:04.233Z,19.84
2023-04-20T09:40:08.652Z,19.85
2023-04-20T09:41:11.832Z,19.78
2023-04-20T09:42:15.839Z,19.78
2023-04-20T09:43:19.959Z,19.82
2023-04-20T09:44:24.371Z,19.83
2023-04-20T09:45:28.013Z,19.84
2023-04-20T09:46:34.863Z,19.84
2023-04-20T09:47:39.581Z,19.83
2023-04-20T09:48:42.325Z,19.83
2023-04-20T09:49:46.469Z,19.84
2023-04-20T09:50:50.700Z,19.83
2023-04-20T09:51:54.930Z,19.83
2023-04-20T09:52:58.495Z,19.83
2023-04-20T09:54:02.640Z,19.83
2023-04-20T09:55:07.124Z,19.85
2023-04-20T09:56:09.860Z,19.88
2023-04-20T09:57:14.617Z,19.89
2023-04-20T09:58:19.758Z,19.91
2023-04-20T09:59:23.509Z,19.93
2023-04-20T10:00:26.718Z,19.95
2023-04-20T10:01:31.013Z,19.95
2023-04-20T10:02:34.057Z,19.97
2023-04-20T10:03:38.160Z,19.98
2023-04-20T10:04:57.659Z,19.98
2023-04-20T10:06:02.069Z,20.00
2023-04-20T10:07:05.694Z,19.99
2023-04-20T10:08:11.114Z,19.97
2023-04-20T10:09:17.626Z,19.98
2023-04-20T10:10:20.439Z,19.97
2023-04-20T10:11:49.173Z,19.98
2023-04-20T10:12:50.389Z,19.98
2023-04-20T10:13:54.161Z,19.98
2023-04-20T10:14:57.308Z,19.97
2023-04-20T10:16:00.134Z,19.97
2023-04-20T10:17:04.829Z,19.94
2023-04-20T10:19:43.052Z,20.00
2023-04-20T10:20:47.868Z,19.88
2023-04-20T10:21:52.030Z,19.89
2023-04-20T10:23:07.053Z,19.89
2023-04-20T10:24:09.636Z,19.88
2023-04-20T10:25:18.741Z,19.86
2023-04-20T10:26:22.530Z,19.88
2023-04-20T10:27:26.439Z,19.87
2023-04-20T10:28:39.928Z,19.87
2023-04-20T10:29:44.723Z,19.84
2023-04-20T10:30:51.962Z,19.84
2023-04-20T10:31:55.096Z,19.84
2023-04-20T10:33:09.409Z,19.85
2023-04-20T10:34:12.165Z,19.84
2023-04-20T10:35:16.250Z,19.84
2023-04-20T10:37:51.916Z,19.86
2023-04-20T10:38:55.854Z,19.75
2023-04-20T10:41:21.695Z,19.80
2023-04-20T10:42:34.511Z,19.67
2023-04-20T10:43:41.851Z,19.66
2023-04-20T10:44:51.989Z,19.65
2023-04-20T10:45:55.413Z,19.66
2023-04-20T10:46:58.769Z,19.65
2023-04-20T10:48:10.899Z,19.61
2023-04-20T10:49:14.696Z,19.64
2023-04-20T10:50:18.625Z,19.66
2023-04-20T10:51:22.619Z,19.67
2023-04-20T10:52:33.782Z,19.66
2023-04-20T10:53:36.688Z,19.67
2023-04-20T10:54:39.907Z,19.70
2023-04-20T10:55:42.851Z,19.70
2023-04-20T10:56:52.918Z,19.70
2023-04-20T10:57:59.031Z,19.70
2023-04-20T10:59:08.942Z,19.68
2023-04-20T11:00:20.374Z,19.68
2023-04-20T11:01:23.331Z,19.67
2023-04-20T11:02:28.320Z,19.68
2023-04-20T11:03:33.082Z,19.67
2023-04-20T11:04:36.612Z,19.65
2023-04-20T11:05:39.873Z,19.65
2023-04-20T11:06:43.979Z,19.68
2023-04-20T11:07:49.269Z,19.70
2023-04-20T11:08:52.078Z,19.73
2023-04-20T11:09:55.885Z,19.75
2023-04-20T11:10:58.664Z,19.75
2023-04-20T11:12:05.721Z,19.77
2023-04-20T11:13:26.236Z,19.79
2023-04-20T11:14:30.322Z,19.82
2023-04-20T11:15:33.629Z,19.85
2023-04-20T11:16:51.364Z,19.87
2023-04-20T11:17:47.828Z,19.86
2023-04-20T11:18:54.251Z,19.86
2023-04-20T11:20:10.467Z,19.87
2023-04-20T11:21:13.749Z,19.88
2023-04-20T11:22:25.703Z,19.90
2023-04-20T11:23:32.711Z,19.90
2023-04-20T11:24:37.655Z,19.89
2023-04-20T11:27:06.759Z,19.97
2023-04-20T11:28:09.515Z,19.86
2023-04-20T11:29:13.432Z,19.87
2023-04-20T11:30:17.528Z,19.89
2023-04-20T11:31:21.065Z,19.90
2023-04-20T11:32:24.731Z,19.91
2023-04-20T11:33:28.543Z,19.93
2023-04-20T11:34:32.014Z,19.95
2023-04-20T11:35:39.370Z,19.97
2023-04-20T11:36:43.065Z,19.99
2023-04-20T11:37:48.470Z,20.02
2023-04-20T11:38:51.647Z,20.05
2023-04-20T11:41:18.337Z,20.20
2023-04-20T11:42:21.947Z,20.11
2023-04-20T11:43:24.940Z,20.13
2023-04-20T11:44:27.901Z,20.15
2023-04-20T11:45:36.363Z,20.17
2023-04-20T11:46:49.259Z,20.19
2023-04-20T11:47:54.442Z,20.21
2023-04-20T11:48:59.637Z,20.23
2023-04-20T11:50:04.181Z,20.25
2023-04-20T11:51:08.112Z,20.26
2023-04-20T11:52:14.360Z,20.26
2023-04-20T11:53:18.317Z,20.29
2023-04-20T11:54:22.477Z,20.31
2023-04-20T11:55:25.752Z,20.33
2023-04-20T11:56:28.729Z,20.34
2023-04-20T11:57:32.828Z,20.35
2023-04-20T11:58:36.163Z,20.36
2023-04-20T11:59:39.859Z,20.37
2023-04-20T12:00:42.540Z,20.38
2023-04-20T12:01:47.041Z,20.39
2023-04-20T12:02:50.483Z,20.40
2023-04-20T12:03:56.220Z,20.41
2023-04-20T12:05:02.243Z,20.41
2023-04-20T12:07:17.846Z,20.52
2023-04-20T12:08:23.487Z,20.43
2023-04-20T12:09:27.826Z,20.44
2023-04-20T12:10:32.103Z,20.44
2023-04-20T12:11:34.831Z,20.45
2023-04-20T12:12:37.967Z,20.41
2023-04-20T12:13:40.660Z,20.41
2023-04-20T12:14:43.923Z,20.46
2023-04-20T12:15:47.159Z,20.46
2023-04-20T12:16:50.283Z,20.48
2023-04-20T12:17:53.923Z,20.49
2023-04-20T12:18:57.593Z,20.49
2023-04-20T12:20:00.937Z,20.50
2023-04-20T12:21:04.632Z,20.51
2023-04-20T12:22:07.379Z,20.52
2023-04-20T12:24:23.544Z,20.65
2023-04-20T12:25:26.317Z,20.54
2023-04-20T12:26:37.952Z,20.54
2023-04-20T12:27:38.013Z,20.56
2023-04-20T12:28:48.954Z,20.57
2023-04-20T12:29:51.747Z,20.20
2023-04-20T12:30:56.305Z,20.58
2023-04-20T12:32:02.458Z,20.60
2023-04-20T12:34:21.650Z,20.73
2023-04-20T12:35:25.141Z,20.63
2023-04-20T12:36:28.296Z,20.63
2023-04-20T12:37:31.570Z,20.64
2023-04-20T12:38:37.153Z,20.65
2023-04-20T12:39:39.762Z,20.66
2023-04-20T12:40:43.327Z,20.67
2023-04-20T12:41:46.318Z,20.68
2023-04-20T12:42:49.345Z,20.67
2023-04-20T12:43:54.377Z,20.69
2023-04-20T12:44:58.105Z,20.69
2023-04-20T12:46:02.886Z,20.70
2023-04-20T12:47:05.849Z,20.70
2023-04-20T12:48:08.479Z,20.71
2023-04-20T12:49:11.140Z,20.71
2023-04-20T12:50:15.314Z,20.72
2023-04-20T12:51:20.205Z,20.72
2023-04-20T12:52:23.512Z,20.72
2023-04-20T12:53:26.223Z,20.72
2023-04-20T12:54:30.000Z,20.72
2023-04-20T12:55:32.876Z,20.73
2023-04-20T12:56:36.211Z,20.74
2023-04-20T12:57:40.247Z,20.74
2023-04-20T12:58:44.672Z,20.73
2023-04-20T12:59:48.159Z,20.75
2023-04-20T13:00:51.759Z,20.74
2023-04-20T13:01:55.011Z,20.72
2023-04-20T13:03:00.391Z,20.71
2023-04-20T13:05:16.237Z,20.80
2023-04-20T13:06:20.404Z,20.69
2023-04-20T13:07:25.553Z,20.69
2023-04-20T13:08:28.349Z,20.69
2023-04-20T13:09:31.652Z,20.68
2023-04-20T13:10:36.115Z,20.61
2023-04-20T13:11:39.145Z,20.61
2023-04-20T13:12:42.299Z,20.67
2023-04-20T13:13:45.379Z,20.66
2023-04-20T13:14:49.070Z,20.66
2023-04-20T13:15:54.207Z,20.66
2023-04-20T13:16:59.471Z,20.66
2023-04-20T13:18:02.745Z,20.65
2023-04-20T13:19:05.494Z,20.64
2023-04-20T13:20:10.464Z,20.64
2023-04-20T13:21:15.373Z,20.64
2023-04-20T13:22:20.141Z,20.64
2023-04-20T13:23:23.375Z,20.65
2023-04-20T13:25:39.207Z,20.76
2023-04-20T13:26:42.168Z,20.65
2023-04-20T13:27:44.610Z,20.65
2023-04-20T13:28:48.422Z,20.65
2023-04-20T13:29:51.073Z,20.66
2023-04-20T13:30:56.043Z,20.66
2023-04-20T13:31:59.001Z,20.66
2023-04-20T13:33:02.771Z,20.67
2023-04-20T13:34:05.810Z,20.68
2023-04-20T13:36:25.135Z,20.80
2023-04-20T13:37:28.393Z,20.70
2023-04-20T13:38:31.848Z,20.69
2023-04-20T13:39:35.201Z,20.70
2023-04-20T13:40:38.583Z,20.71
2023-04-20T13:41:42.221Z,20.72
2023-04-20T13:42:45.267Z,20.71
2023-04-20T13:45:00.409Z,20.85
2023-04-20T13:46:04.525Z,20.74
2023-04-20T13:47:07.672Z,20.74
2023-04-20T13:48:11.924Z,20.75
2023-04-20T13:49:16.708Z,20.76
2023-04-20T13:50:19.792Z,20.77
2023-04-20T13:51:22.766Z,20.79
2023-04-20T13:52:25.772Z,20.80
2023-04-20T13:53:29.040Z,20.80
2023-04-20T13:54:32.426Z,20.81
2023-04-20T13:55:35.157Z,20.83
2023-04-20T13:56:37.815Z,20.83
2023-04-20T13:57:41.783Z,20.84
2023-04-20T13:58:45.471Z,20.85
2023-04-20T13:59:48.682Z,20.85
2023-04-20T14:00:52.901Z,20.86
2023-04-20T14:01:55.668Z,20.89
2023-04-20T14:02:58.482Z,20.88
2023-04-20T14:04:02.656Z,20.89
2023-04-20T14:05:06.435Z,20.90
2023-04-20T14:06:10.272Z,20.91
2023-04-20T14:07:13.113Z,20.92
2023-04-20T14:08:15.949Z,20.92
2023-04-20T14:09:19.362Z,20.93
2023-04-20T14:10:22.502Z,20.93
2023-04-20T14:11:25.821Z,20.93
2023-04-20T14:12:29.489Z,20.94
2023-04-20T14:13:33.412Z,20.94
2023-04-20T14:14:36.093Z,20.96
2023-04-20T14:15:40.775Z,20.94
2023-04-20T14:16:45.995Z,20.96
2023-04-20T14:17:50.291Z,20.96
2023-04-20T14:18:55.016Z,20.95
2023-04-20T14:19:59.975Z,20.96
2023-04-20T14:21:02.900Z,20.97
2023-04-20T14:22:05.595Z,20.97
2023-04-20T14:23:09.768Z,20.97
2023-04-20T14:24:13.213Z,20.99
2023-04-20T14:25:17.200Z,20.98
2023-04-20T14:27:32.069Z,21.11
2023-04-20T14:28:35.340Z,21.01